createdAt,value
2018-11-21T00:02:04.553Z,81.69
2018-11-21T00:04:31.406Z,82.08
2018-11-21T00:06:58.198Z,82.43
2018-11-21T00:09:25.721Z,82.37
2018-11-21T00:11:52.534Z,82.39
2018-11-21T00:14:19.275Z,82.57
2018-11-21T00:16:46.878Z,82.28
2018-11-21T00:19:13.667Z,82.66
2018-11-21T00:21:40.415Z,82.43
2018-11-21T00:24:07.287Z,82.25
2018-11-21T00:26:34.124Z,82.59
2018-11-21T00:29:00.947Z,82.12
2018-11-21T00:31:27.678Z,82.73
2018-11-21T00:33:54.475Z,82.44
2018-11-21T00:36:21.207Z,82.55
2018-11-21T00:38:47.968Z,82.51
2018-11-21T00:41:14.764Z,82.59
2018-11-21T00:43:41.483Z,82.09
2018-11-21T00:46:08.471Z,82.03
2018-11-21T00:48:35.301Z,82.04
2018-11-21T00:51:02.061Z,81.76
2018-11-21T00:53:28.847Z,82.00
2018-11-21T00:55:55.887Z,81.93
2018-11-21T00:58:22.963Z,81.20
2018-11-21T01:00:49.770Z,81.50
2018-11-21T01:03:16.570Z,81.60
2018-11-21T01:05:43.803Z,81.29
2018-11-21T01:08:11.129Z,81.33
2018-11-21T01:10:37.933Z,81.39
2018-11-21T01:13:04.668Z,80.84
2018-11-21T01:15:31.404Z,80.96
2018-11-21T01:17:58.192Z,80.99
2018-11-21T01:20:24.938Z,80.81
2018-11-21T01:22:51.933Z,80.77
2018-11-21T01:25:18.715Z,80.89
2018-11-21T01:27:45.792Z,80.56
2018-11-21T01:30:12.863Z,80.47
2018-11-21T01:32:39.673Z,80.88
2018-11-21T01:35:06.671Z,80.83
2018-11-21T01:37:33.857Z,80.39
2018-11-21T01:40:00.658Z,80.58
2018-11-21T01:42:27.409Z,80.17
2018-11-21T01:44:54.174Z,80.38
2018-11-21T01:47:20.960Z,80.32
2018-11-21T01:49:47.782Z,80.04
2018-11-21T01:52:14.510Z,80.31
2018-11-21T01:54:41.433Z,80.43
2018-11-21T01:57:08.168Z,80.17
2018-11-21T01:59:34.925Z,80.18
2018-11-21T02:02:01.722Z,79.70
2018-11-21T02:04:28.837Z,79.58
2018-11-21T02:06:55.672Z,79.94
2018-11-21T02:09:22.467Z,79.92
2018-11-21T02:11:49.188Z,79.22
2018-11-21T02:14:15.924Z,79.73
2018-11-21T02:16:42.692Z,79.75
2018-11-21T02:19:09.893Z,79.82
2018-11-21T02:21:36.616Z,79.65
2018-11-21T02:24:03.498Z,78.79
2018-11-21T02:26:30.242Z,79.34
2018-11-21T02:28:57.101Z,78.89
2018-11-21T02:31:23.963Z,78.69
2018-11-21T02:33:50.831Z,79.25
2018-11-21T02:36:17.572Z,79.05
2018-11-21T02:38:44.494Z,79.34
2018-11-21T02:41:11.307Z,79.11
2018-11-21T02:43:38.179Z,79.14
2018-11-21T02:46:04.987Z,79.58
2018-11-21T02:48:31.715Z,79.44
2018-11-21T02:50:58.459Z,79.20
2018-11-21T02:53:25.391Z,78.52
2018-11-21T02:55:52.195Z,78.87
2018-11-21T02:58:18.943Z,78.78
2018-11-21T03:00:45.735Z,78.40
2018-11-21T03:03:12.470Z,78.91
2018-11-21T03:05:39.199Z,78.62
2018-11-21T03:08:06.122Z,78.37
2018-11-21T03:10:33.259Z,79.18
2018-11-21T03:13:00.014Z,78.82
2018-11-21T03:15:26.806Z,79.01
2018-11-21T03:17:53.544Z,79.22
2018-11-21T03:20:20.269Z,79.23
2018-11-21T03:22:47.481Z,78.76
2018-11-21T03:25:14.237Z,78.96
2018-11-21T03:27:40.972Z,78.73
2018-11-21T03:30:08.813Z,78.72
2018-11-21T03:32:35.659Z,78.58
2018-11-21T03:35:02.391Z,79.00
2018-11-21T03:37:29.261Z,78.69
2018-11-21T03:39:56.389Z,78.58
2018-11-21T03:42:23.129Z,78.69
2018-11-21T03:44:49.903Z,79.27
2018-11-21T03:47:16.651Z,79.20
2018-11-21T03:49:43.495Z,79.11
2018-11-21T03:52:10.278Z,79.28
2018-11-21T03:54:37.184Z,79.23
2018-11-21T03:57:03.912Z,79.31
2018-11-21T03:59:30.706Z,79.44
2018-11-21T04:01:57.444Z,78.51
2018-11-21T04:04:24.183Z,79.24
2018-11-21T04:06:50.986Z,79.47
2018-11-21T04:09:17.800Z,79.57
2018-11-21T04:11:44.550Z,79.22
2018-11-21T04:14:11.342Z,79.42
2018-11-21T04:16:38.090Z,79.29
2018-11-21T04:19:04.872Z,79.50
2018-11-21T04:21:31.661Z,79.20
2018-11-21T04:23:58.394Z,79.21
2018-11-21T04:26:25.271Z,79.31
2018-11-21T04:28:52.380Z,79.23
2018-11-21T04:31:19.122Z,79.79
2018-11-21T04:33:45.867Z,79.76
2018-11-21T04:36:13.386Z,79.91
2018-11-21T04:38:40.210Z,80.01
2018-11-21T04:41:06.949Z,79.72
2018-11-21T04:43:33.741Z,79.32
2018-11-21T04:46:00.490Z,79.91
2018-11-21T04:48:27.218Z,80.05
2018-11-21T04:50:55.245Z,79.96
2018-11-21T04:53:21.982Z,79.55
2018-11-21T04:55:48.736Z,79.97
2018-11-21T04:58:15.528Z,80.38
2018-11-21T05:00:42.275Z,80.58
2018-11-21T05:03:09.088Z,80.66
2018-11-21T05:05:35.889Z,80.40
2018-11-21T05:08:02.631Z,80.52
2018-11-21T05:10:29.589Z,80.46
2018-11-21T05:12:56.370Z,80.84
2018-11-21T05:15:23.116Z,80.78
2018-11-21T05:17:49.846Z,80.81
2018-11-21T05:20:23.509Z,81.23
2018-11-21T05:22:50.250Z,80.93
2018-11-21T05:25:16.985Z,81.25
2018-11-21T05:27:43.784Z,81.17
2018-11-21T05:30:11.824Z,81.50
2018-11-21T05:32:38.695Z,81.16
2018-11-21T05:35:05.681Z,81.31
2018-11-21T05:37:32.550Z,81.40
2018-11-21T05:39:59.439Z,80.90
2018-11-21T05:42:26.381Z,81.65
2018-11-21T05:44:53.137Z,81.38
2018-11-21T05:47:19.978Z,81.22
2018-11-21T05:49:47.090Z,81.79
2018-11-21T05:52:13.822Z,81.59
2018-11-21T05:54:40.762Z,81.68
2018-11-21T05:57:07.571Z,81.56
2018-11-21T05:59:34.684Z,81.35
2018-11-21T06:02:01.454Z,81.90
2018-11-21T06:04:28.254Z,81.76
2018-11-21T06:06:55.601Z,81.88
2018-11-21T06:09:22.397Z,81.78
2018-11-21T06:11:49.199Z,82.06
2018-11-21T06:14:15.954Z,82.08
2018-11-21T06:16:43.588Z,82.15
2018-11-21T06:19:10.462Z,81.95
2018-11-21T06:21:37.294Z,82.25
2018-11-21T06:24:04.076Z,82.33
2018-11-21T06:26:31.337Z,82.14
2018-11-21T06:28:58.063Z,82.05
2018-11-21T06:31:24.808Z,82.16
2018-11-21T06:33:51.656Z,82.33
2018-11-21T06:36:18.406Z,82.17
2018-11-21T06:38:45.144Z,82.44
2018-11-21T06:41:11.948Z,82.80
2018-11-21T06:43:38.691Z,82.52
2018-11-21T06:46:05.455Z,82.19
2018-11-21T06:48:32.267Z,82.45
2018-11-21T06:50:59.015Z,82.46
2018-11-21T06:53:25.806Z,82.81
2018-11-21T06:55:52.616Z,82.64
2018-11-21T06:58:19.823Z,82.45
2018-11-21T07:00:47.607Z,82.28
2018-11-21T07:03:14.438Z,82.76
2018-11-21T07:05:42.227Z,82.29
2018-11-21T07:08:09.620Z,82.13
2018-11-21T07:10:36.459Z,82.19
2018-11-21T07:13:03.220Z,82.42
2018-11-21T07:15:29.992Z,82.67
2018-11-21T07:17:56.957Z,82.37
2018-11-21T07:20:23.828Z,82.93
2018-11-21T07:22:50.585Z,82.53
2018-11-21T07:25:19.090Z,82.20
2018-11-21T07:27:46.394Z,82.23
2018-11-21T07:30:14.235Z,82.21
2018-11-21T07:32:41.087Z,82.29
2018-11-21T07:35:09.104Z,81.72
2018-11-21T07:37:36.091Z,82.07
2018-11-21T07:40:03.947Z,82.45
2018-11-21T07:42:30.748Z,82.38
2018-11-21T07:44:57.507Z,81.94
2018-11-21T07:47:26.634Z,82.32
2018-11-21T07:49:51.801Z,82.59
2018-11-21T07:52:19.191Z,82.34
2018-11-21T07:54:46.047Z,82.22
2018-11-21T07:57:33.044Z,82.01
2018-11-21T08:01:00.656Z,82.24
2018-11-21T08:03:29.330Z,82.22
2018-11-21T08:06:23.601Z,82.29
2018-11-21T08:09:09.125Z,82.65
2018-11-21T08:11:55.847Z,82.67
2018-11-21T08:14:51.405Z,82.57
2018-11-21T08:17:25.460Z,82.83
2018-11-21T08:20:10.696Z,82.48
2018-11-21T08:22:47.254Z,82.77
2018-11-21T08:25:39.643Z,82.86
2018-11-21T08:28:21.992Z,83.28
2018-11-21T08:30:49.560Z,83.71
2018-11-21T08:33:16.311Z,83.23
2018-11-21T08:35:43.298Z,83.35
2018-11-21T08:38:10.037Z,82.52
2018-11-21T08:40:37.254Z,82.73
2018-11-21T08:43:05.624Z,82.92
2018-11-21T08:45:32.352Z,82.91
2018-11-21T08:47:59.153Z,82.24
2018-11-21T08:50:25.968Z,82.79
2018-11-21T08:52:52.720Z,83.17
2018-11-21T08:55:19.605Z,83.07
2018-11-21T08:57:46.386Z,83.35
2018-11-21T09:00:13.915Z,83.43
2018-11-21T09:02:40.807Z,83.16
2018-11-21T09:05:08.885Z,83.02
2018-11-21T09:07:35.976Z,83.38
2018-11-21T09:10:03.333Z,83.24
2018-11-21T09:12:30.465Z,82.78
2018-11-21T09:14:57.205Z,82.09
2018-11-21T09:17:23.941Z,81.98
2018-11-21T09:19:51.055Z,82.25
2018-11-21T09:22:17.854Z,82.02
2018-11-21T09:24:44.933Z,82.65
2018-11-21T09:27:11.817Z,82.74
2018-11-21T09:29:38.981Z,82.89
2018-11-21T09:32:05.734Z,82.41
2018-11-21T09:34:32.617Z,82.47
2018-11-21T09:36:59.417Z,82.73
2018-11-21T09:39:26.152Z,82.37
2018-11-21T09:41:53.833Z,82.41
2018-11-21T09:44:20.712Z,82.18
2018-11-21T09:46:47.567Z,82.55
2018-11-21T09:49:14.778Z,83.03
2018-11-21T09:51:43.709Z,82.46
2018-11-21T09:54:10.462Z,82.19
2018-11-21T09:56:37.249Z,83.26
2018-11-21T09:59:04.043Z,82.72
2018-11-21T10:02:08.087Z,83.04
2018-11-21T10:04:34.789Z,83.40
2018-11-21T10:07:01.581Z,83.47
2018-11-21T10:09:31.445Z,83.44
2018-11-21T10:11:58.176Z,83.28
2018-11-21T10:14:24.927Z,83.34
2018-11-21T10:16:51.722Z,83.28
2018-11-21T10:19:18.456Z,82.95
2018-11-21T10:21:45.207Z,83.73
2018-11-21T10:24:11.995Z,84.22
2018-11-21T10:26:38.734Z,84.76
2018-11-21T10:29:05.576Z,84.78
2018-11-21T10:31:32.504Z,84.97
2018-11-21T10:33:59.571Z,85.28
2018-11-21T10:36:26.317Z,85.54
2018-11-21T10:38:53.101Z,85.50
2018-11-21T10:41:19.873Z,85.56
2018-11-21T10:43:46.611Z,85.77
2018-11-21T10:46:13.439Z,86.02
2018-11-21T10:48:40.211Z,86.05
2018-11-21T10:51:07.242Z,85.97
2018-11-21T10:53:34.063Z,85.83
2018-11-21T10:56:00.821Z,86.52
2018-11-21T10:58:27.972Z,86.48
2018-11-21T11:01:13.288Z,86.34
2018-11-21T11:03:51.199Z,86.13
2018-11-21T11:06:52.982Z,86.14
2018-11-21T11:09:37.877Z,86.46
2018-11-21T11:12:23.507Z,86.12
2018-11-21T11:15:08.482Z,86.27
2018-11-21T11:18:06.801Z,86.11
2018-11-21T11:21:07.074Z,86.50
2018-11-21T11:24:05.022Z,86.55
2018-11-21T11:26:47.187Z,85.97
2018-11-21T11:29:39.687Z,85.98
2018-11-21T11:32:24.851Z,85.60
2018-11-21T11:35:13.853Z,85.33
2018-11-21T11:41:03.360Z,85.33
2018-11-21T11:43:48.859Z,84.83
2018-11-21T11:46:41.635Z,85.25
2018-11-21T11:49:27.816Z,84.87
2018-11-21T11:52:15.117Z,84.01
2018-11-21T11:55:12.084Z,84.67
2018-11-21T11:58:01.459Z,84.78
2018-11-21T12:00:47.798Z,84.30
2018-11-21T12:03:34.165Z,84.08
2018-11-21T12:06:18.225Z,83.84
2018-11-21T12:09:04.579Z,84.14
2018-11-21T12:11:47.796Z,83.16
2018-11-21T12:14:34.167Z,83.74
2018-11-21T12:17:20.472Z,83.37
2018-11-21T12:20:04.708Z,83.61
2018-11-21T12:22:51.094Z,83.31
2018-11-21T12:25:37.515Z,83.40
2018-11-21T12:28:24.316Z,82.32
2018-11-21T12:31:10.680Z,82.21
2018-11-21T12:33:57.470Z,82.67
2018-11-21T12:36:45.054Z,82.30
2018-11-21T12:39:32.063Z,82.37
2018-11-21T12:42:19.915Z,82.54
2018-11-21T12:45:06.248Z,82.78
2018-11-21T12:47:53.263Z,83.10
2018-11-21T12:50:40.131Z,82.83
2018-11-21T12:53:26.588Z,82.74
2018-11-21T12:56:13.422Z,83.17
2018-11-21T12:59:00.250Z,83.56
2018-11-21T13:01:46.841Z,84.62
2018-11-21T13:04:33.771Z,85.88
2018-11-21T13:07:08.834Z,85.34
2018-11-21T13:09:56.758Z,85.77
2018-11-21T13:12:42.764Z,86.25
2018-11-21T13:15:49.816Z,86.67
2018-11-21T13:18:36.641Z,87.03
2018-11-21T13:21:23.126Z,87.10
2018-11-21T13:24:09.441Z,85.79
2018-11-21T13:26:55.850Z,86.13
2018-11-21T13:29:42.159Z,85.46
2018-11-21T13:32:28.514Z,85.61
2018-11-21T13:35:14.843Z,85.24
2018-11-21T13:38:01.258Z,85.09
2018-11-21T13:40:47.631Z,85.56
2018-11-21T13:43:34.007Z,84.99
2018-11-21T13:46:20.453Z,84.93
2018-11-21T13:49:07.149Z,84.59
2018-11-21T13:51:53.852Z,84.87
2018-11-21T13:54:40.230Z,84.49
2018-11-21T13:57:07.012Z,84.33
2018-11-21T13:59:53.896Z,84.34
2018-11-21T14:02:20.729Z,84.70
2018-11-21T14:04:47.460Z,84.31
2018-11-21T14:07:14.287Z,84.60
2018-11-21T14:09:41.039Z,83.91
2018-11-21T14:12:08.361Z,83.71
2018-11-21T14:14:35.218Z,84.12
2018-11-21T14:17:01.918Z,84.41
2018-11-21T14:19:28.621Z,84.22
2018-11-21T14:21:56.086Z,84.51
2018-11-21T14:24:22.515Z,84.80
2018-11-21T14:26:49.228Z,84.71
2018-11-21T14:29:16.158Z,84.71
2018-11-21T14:31:43.406Z,84.41
2018-11-21T14:34:10.185Z,84.43
2018-11-21T14:36:36.968Z,84.71
2018-11-21T14:39:10.582Z,85.63
2018-11-21T14:41:37.732Z,85.78
2018-11-21T14:44:05.479Z,85.86
2018-11-21T14:46:32.491Z,85.94
2018-11-21T14:48:59.207Z,86.07
2018-11-21T14:51:25.947Z,86.54
2018-11-21T14:53:53.109Z,86.34
2018-11-21T14:56:19.880Z,86.49
2018-11-21T14:58:46.949Z,86.45
2018-11-21T15:01:13.703Z,85.91
2018-11-21T15:03:40.411Z,86.28
2018-11-21T15:06:07.170Z,86.41
2018-11-21T15:08:33.877Z,86.70
2018-11-21T15:11:00.861Z,86.57
2018-11-21T15:13:27.754Z,86.66
2018-11-21T15:15:54.469Z,86.65
2018-11-21T15:18:21.451Z,86.63
2018-11-21T15:20:48.254Z,87.04
2018-11-21T15:23:15.059Z,86.77
2018-11-21T15:25:41.885Z,86.71
2018-11-21T15:28:09.049Z,87.03
2018-11-21T15:30:36.066Z,86.92
2018-11-21T15:33:02.834Z,86.65
2018-11-21T15:35:29.610Z,86.86
2018-11-21T15:38:16.251Z,87.12
2018-11-21T15:40:46.942Z,86.93
2018-11-21T15:43:09.721Z,86.81
2018-11-21T15:45:36.486Z,86.92
2018-11-21T15:48:03.327Z,87.14
2018-11-21T15:50:30.946Z,87.13
2018-11-21T15:52:57.746Z,87.07
2018-11-21T15:55:24.518Z,87.25
2018-11-21T15:57:51.303Z,87.39
2018-11-21T16:00:20.739Z,87.56
2018-11-21T16:02:48.661Z,87.52
2018-11-21T16:05:16.156Z,87.78
2018-11-21T16:08:03.523Z,87.71
2018-11-21T16:10:48.907Z,87.88
2018-11-21T16:13:15.667Z,87.59
2018-11-21T16:15:44.445Z,87.52
2018-11-21T16:18:11.233Z,87.06
2018-11-21T16:20:38.094Z,87.40
2018-11-21T16:23:04.827Z,87.29
2018-11-21T16:25:31.535Z,87.04
2018-11-21T16:27:58.332Z,87.36
2018-11-21T16:30:25.618Z,87.13
2018-11-21T16:32:52.470Z,87.24
2018-11-21T16:35:19.299Z,87.17
2018-11-21T16:37:46.324Z,87.39
2018-11-21T16:40:15.447Z,87.26
2018-11-21T16:42:42.285Z,87.26
2018-11-21T16:45:10.521Z,87.29
2018-11-21T16:47:37.361Z,87.27
2018-11-21T16:50:07.099Z,87.25
2018-11-21T16:52:33.873Z,87.06
2018-11-21T16:55:00.723Z,87.06
2018-11-21T16:57:27.935Z,87.27
2018-11-21T16:59:55.821Z,87.15
2018-11-21T17:02:21.679Z,87.02
2018-11-21T17:04:48.684Z,86.87
2018-11-21T17:07:15.509Z,86.94
2018-11-21T17:09:43.730Z,86.94
2018-11-21T17:12:12.051Z,87.01
2018-11-21T17:14:39.221Z,87.02
2018-11-21T17:17:06.147Z,86.84
2018-11-21T17:19:33.047Z,87.44
2018-11-21T17:22:00.050Z,88.00
2018-11-21T17:24:26.896Z,88.29
2018-11-21T17:26:53.967Z,89.24
2018-11-21T17:29:21.079Z,90.13
2018-11-21T17:31:49.327Z,90.51
2018-11-21T17:34:16.291Z,91.06
2018-11-21T17:36:43.222Z,91.05
2018-11-21T17:39:11.632Z,91.21
2018-11-21T17:41:38.498Z,90.53
2018-11-21T17:44:05.382Z,90.45
2018-11-21T17:46:32.096Z,89.72
2018-11-21T17:48:58.882Z,89.87
2018-11-21T17:51:26.700Z,90.78
2018-11-21T17:53:52.338Z,91.51
2018-11-21T17:56:19.094Z,91.97
2018-11-21T17:58:45.813Z,93.18
2018-11-21T18:01:12.760Z,93.94
2018-11-21T18:03:40.238Z,95.00
2018-11-21T18:06:07.047Z,95.83
2018-11-21T18:08:33.886Z,96.66
2018-11-21T18:11:00.771Z,96.98
2018-11-21T18:13:27.482Z,97.66
2018-11-21T18:15:54.330Z,98.25
2018-11-21T18:18:21.554Z,98.83
2018-11-21T18:20:48.262Z,99.56
2018-11-21T18:23:14.962Z,100.00
2018-11-21T18:28:16.817Z,100.00
2018-11-21T18:30:43.589Z,100.00
2018-11-21T18:33:12.033Z,100.00
2018-11-21T18:35:38.505Z,100.00
2018-11-21T18:38:05.322Z,100.00
2018-11-21T18:40:32.266Z,100.00
2018-11-21T18:42:59.365Z,100.00
2018-11-21T18:45:29.409Z,100.00
2018-11-21T18:47:56.305Z,100.00
2018-11-21T18:50:23.209Z,100.00
2018-11-21T18:52:51.181Z,100.00
2018-11-21T18:55:20.857Z,100.00
2018-11-21T18:58:27.228Z,100.00
2018-11-21T19:00:54.760Z,100.00
2018-11-21T19:03:21.617Z,100.00
2018-11-21T19:05:49.249Z,100.00
2018-11-21T19:08:23.744Z,100.00
2018-11-21T19:10:51.383Z,100.00
2018-11-21T19:13:18.311Z,100.00
2018-11-21T19:15:46.412Z,100.00
2018-11-21T19:18:13.315Z,100.00
2018-11-21T19:20:40.152Z,100.00
2018-11-21T19:23:26.894Z,99.75
2018-11-21T19:25:53.599Z,99.75
2018-11-21T19:28:20.391Z,100.00
2018-11-21T19:30:47.247Z,99.97
2018-11-21T19:33:14.090Z,99.94
2018-11-21T19:35:41.207Z,99.97
2018-11-21T19:38:07.984Z,99.83
2018-11-21T19:40:35.142Z,99.61
2018-11-21T19:43:02.189Z,99.30
2018-11-21T19:45:29.438Z,99.22
2018-11-21T19:47:56.660Z,98.94
2018-11-21T19:50:23.458Z,98.60
2018-11-21T19:52:50.925Z,98.38
2018-11-21T19:55:19.929Z,97.42
2018-11-21T19:57:46.832Z,97.09
2018-11-21T20:00:16.537Z,97.37
2018-11-21T20:02:43.409Z,96.55
2018-11-21T20:05:10.173Z,97.00
2018-11-21T20:07:37.586Z,95.99
2018-11-21T20:10:05.354Z,95.86
2018-11-21T20:12:32.700Z,96.18
2018-11-21T20:14:59.876Z,96.16
2018-11-21T20:17:26.589Z,95.81
2018-11-21T20:19:53.303Z,95.01
2018-11-21T20:22:20.117Z,95.55
2018-11-21T20:24:47.262Z,95.25
2018-11-21T20:27:14.123Z,95.07
2018-11-21T20:29:46.513Z,94.62
2018-11-21T20:32:07.683Z,94.98
2018-11-21T20:34:34.474Z,94.61
2018-11-21T20:37:02.018Z,95.13
2018-11-21T20:39:28.800Z,94.57
2018-11-21T20:41:55.665Z,94.77
2018-11-21T20:44:22.534Z,94.52
2018-11-21T20:46:49.275Z,94.41
2018-11-21T20:49:16.001Z,94.43
2018-11-21T20:51:42.811Z,94.24
2018-11-21T20:54:09.623Z,94.20
2018-11-21T20:56:36.359Z,94.28
2018-11-21T20:59:03.471Z,94.14
2018-11-21T21:01:30.233Z,94.26
2018-11-21T21:03:57.092Z,94.17
2018-11-21T21:06:23.910Z,93.44
2018-11-21T21:08:50.953Z,93.40
2018-11-21T21:11:17.690Z,93.63
2018-11-21T21:13:44.857Z,92.53
2018-11-21T21:16:11.612Z,93.14
2018-11-21T21:18:38.716Z,93.16
2018-11-21T21:21:05.643Z,92.95
2018-11-21T21:23:32.470Z,92.66
2018-11-21T21:25:59.205Z,92.79
2018-11-21T21:28:26.059Z,92.61
2018-11-21T21:30:52.817Z,93.14
2018-11-21T21:33:19.552Z,92.89
2018-11-21T21:35:46.342Z,93.28
2018-11-21T21:38:13.065Z,93.10
2018-11-21T21:40:39.907Z,92.74
2018-11-21T21:43:06.710Z,92.86
2018-11-21T21:45:33.617Z,92.73
2018-11-21T21:48:00.637Z,92.69
2018-11-21T21:50:29.105Z,92.61
2018-11-21T21:52:55.882Z,92.43
2018-11-21T21:55:23.937Z,92.19
2018-11-21T21:57:50.818Z,91.94
2018-11-21T22:00:21.933Z,92.09
2018-11-21T22:02:49.524Z,91.88
2018-11-21T22:05:18.350Z,91.46
2018-11-21T22:07:45.090Z,91.63
2018-11-21T22:10:13.209Z,91.43
2018-11-21T22:12:40.415Z,91.30
2018-11-21T22:18:10.674Z,91.69
2018-11-21T22:20:37.736Z,91.07
2018-11-21T22:23:04.645Z,91.01
2018-11-21T22:25:31.538Z,91.01
2018-11-21T22:27:58.355Z,90.74
2018-11-21T22:30:25.264Z,91.03
2018-11-21T22:32:52.894Z,90.94
2018-11-21T22:35:24.974Z,91.02
2018-11-21T22:37:51.367Z,90.94
2018-11-21T22:40:15.585Z,90.97
2018-11-21T22:42:45.048Z,91.06
2018-11-21T22:45:13.105Z,90.96
2018-11-21T22:47:41.332Z,90.81
2018-11-21T22:50:09.624Z,90.68
2018-11-21T22:52:36.642Z,90.68
2018-11-21T22:55:03.484Z,90.62
2018-11-21T22:57:50.041Z,90.70
2018-11-21T23:00:19.544Z,90.42
2018-11-21T23:02:46.326Z,90.87
2018-11-21T23:05:13.046Z,90.97
2018-11-21T23:07:40.963Z,90.86
2018-11-21T23:10:08.952Z,90.98
2018-11-21T23:12:35.791Z,90.90
2018-11-21T23:15:02.899Z,90.67
2018-11-21T23:17:29.766Z,91.13
2018-11-21T23:19:56.507Z,90.60
2018-11-21T23:22:23.287Z,90.89
2018-11-21T23:24:50.018Z,91.17
2018-11-21T23:27:16.753Z,91.13
2018-11-21T23:29:43.556Z,90.88
2018-11-21T23:32:10.663Z,91.22
2018-11-21T23:34:37.491Z,90.83
2018-11-21T23:37:04.378Z,91.30
2018-11-21T23:39:31.108Z,91.08
2018-11-21T23:41:57.902Z,91.12
2018-11-21T23:44:24.725Z,91.10
2018-11-21T23:46:51.518Z,91.03
2018-11-21T23:49:18.379Z,90.83
2018-11-21T23:51:45.181Z,91.34
2018-11-21T23:54:11.912Z,91.80
2018-11-21T23:56:38.736Z,91.74
2018-11-21T23:59:05.544Z,91.11
